sensor_id;sensor_type;location;lat;lon;timestamp;P1;durP1;ratioP1;P2;durP2;ratioP2
5121;SDS011;2563;52.242;7.956;2022-09-09T00:00:21;5.20;;;1.97;;
5121;SDS011;2563;52.242;7.956;2022-09-09T00:02:55;5.30;;;1.97;;
5121;SDS011;2563;52.242;7.956;2022-09-09T00:05:38;5.60;;;2.00;;
5121;SDS011;2563;52.242;7.956;2022-09-09T00:08:18;5.70;;;1.97;;
5121;SDS011;2563;52.242;7.956;2022-09-09T00:10:49;8.73;;;2.40;;
5121;SDS011;2563;52.242;7.956;2022-09-09T00:21:38;5.40;;;1.67;;
5121;SDS011;2563;52.242;7.956;2022-09-09T00:24:28;4.97;;;1.90;;
5121;SDS011;2563;52.242;7.956;2022-09-09T00:27:07;3.80;;;1.63;;
5121;SDS011;2563;52.242;7.956;2022-09-09T00:29:47;7.90;;;2.70;;
5121;SDS011;2563;52.242;7.956;2022-09-09T00:32:27;6.70;;;1.90;;
5121;SDS011;2563;52.242;7.956;2022-09-09T00:34:56;4.87;;;1.80;;
5121;SDS011;2563;52.242;7.956;2022-09-09T00:37:25;5.97;;;2.07;;
5121;SDS011;2563;52.242;7.956;2022-09-09T00:39:51;8.17;;;2.03;;
5121;SDS011;2563;52.242;7.956;2022-09-09T00:42:32;6.07;;;1.93;;
5121;SDS011;2563;52.242;7.956;2022-09-09T00:47:52;5.47;;;1.50;;
5121;SDS011;2563;52.242;7.956;2022-09-09T00:50:31;3.93;;;1.67;;
5121;SDS011;2563;52.242;7.956;2022-09-09T00:56:16;6.53;;;2.03;;
5121;SDS011;2563;52.242;7.956;2022-09-09T00:58:58;8.90;;;2.10;;
5121;SDS011;2563;52.242;7.956;2022-09-09T01:01:43;7.73;;;2.53;;
5121;SDS011;2563;52.242;7.956;2022-09-09T01:04:10;11.73;;;2.00;;
5121;SDS011;2563;52.242;7.956;2022-09-09T01:06:41;6.63;;;1.93;;
5121;SDS011;2563;52.242;7.956;2022-09-09T01:17:27;7.30;;;2.00;;
5121;SDS011;2563;52.242;7.956;2022-09-09T01:28:34;3.80;;;1.70;;
5121;SDS011;2563;52.242;7.956;2022-09-09T01:31:02;4.30;;;1.63;;
5121;SDS011;2563;52.242;7.956;2022-09-09T01:33:29;6.77;;;1.87;;
5121;SDS011;2563;52.242;7.956;2022-09-09T01:38:22;7.63;;;2.00;;
5121;SDS011;2563;52.242;7.956;2022-09-09T01:40:49;4.90;;;1.70;;
5121;SDS011;2563;52.242;7.956;2022-09-09T01:43:17;6.20;;;1.80;;
5121;SDS011;2563;52.242;7.956;2022-09-09T01:45:44;3.87;;;1.90;;
5121;SDS011;2563;52.242;7.956;2022-09-09T01:48:14;6.50;;;1.83;;
5121;SDS011;2563;52.242;7.956;2022-09-09T01:50:39;3.97;;;1.50;;
5121;SDS011;2563;52.242;7.956;2022-09-09T01:53:04;7.00;;;1.50;;
5121;SDS011;2563;52.242;7.956;2022-09-09T01:55:32;7.40;;;2.10;;
5121;SDS011;2563;52.242;7.956;2022-09-09T02:03:39;6.20;;;2.00;;
5121;SDS011;2563;52.242;7.956;2022-09-09T02:06:33;7.83;;;2.80;;
5121;SDS011;2563;52.242;7.956;2022-09-09T02:09:02;3.70;;;1.53;;
5121;SDS011;2563;52.242;7.956;2022-09-09T02:11:30;6.80;;;2.17;;
5121;SDS011;2563;52.242;7.956;2022-09-09T02:13:57;4.53;;;1.70;;
5121;SDS011;2563;52.242;7.956;2022-09-09T02:16:35;4.23;;;1.60;;
5121;SDS011;2563;52.242;7.956;2022-09-09T02:19:14;3.30;;;1.50;;
5121;SDS011;2563;52.242;7.956;2022-09-09T02:21:50;7.63;;;1.40;;
5121;SDS011;2563;52.242;7.956;2022-09-09T02:24:18;5.17;;;1.50;;
5121;SDS011;2563;52.242;7.956;2022-09-09T02:26:44;6.57;;;1.37;;
5121;SDS011;2563;52.242;7.956;2022-09-09T02:29:14;5.97;;;1.33;;
5121;SDS011;2563;52.242;7.956;2022-09-09T02:31:42;7.70;;;1.90;;
5121;SDS011;2563;52.242;7.956;2022-09-09T02:34:11;6.03;;;1.67;;
5121;SDS011;2563;52.242;7.956;2022-09-09T02:36:38;6.60;;;1.87;;
5121;SDS011;2563;52.242;7.956;2022-09-09T02:39:08;4.10;;;1.60;;
5121;SDS011;2563;52.242;7.956;2022-09-09T02:41:37;4.77;;;1.97;;
5121;SDS011;2563;52.242;7.956;2022-09-09T02:44:14;4.57;;;1.70;;
5121;SDS011;2563;52.242;7.956;2022-09-09T02:46:56;6.13;;;1.60;;
5121;SDS011;2563;52.242;7.956;2022-09-09T02:52:32;7.80;;;2.23;;
5121;SDS011;2563;52.242;7.956;2022-09-09T02:55:18;3.33;;;1.50;;
5121;SDS011;2563;52.242;7.956;2022-09-09T02:57:49;5.47;;;1.70;;
5121;SDS011;2563;52.242;7.956;2022-09-09T03:00:22;5.17;;;1.83;;
5121;SDS011;2563;52.242;7.956;2022-09-09T03:02:49;3.20;;;1.20;;
5121;SDS011;2563;52.242;7.956;2022-09-09T03:05:15;4.60;;;1.73;;
5121;SDS011;2563;52.242;7.956;2022-09-09T03:07:40;4.80;;;1.90;;
5121;SDS011;2563;52.242;7.956;2022-09-09T03:10:06;8.03;;;1.83;;
5121;SDS011;2563;52.242;7.956;2022-09-09T03:12:33;6.40;;;2.13;;
5121;SDS011;2563;52.242;7.956;2022-09-09T03:14:58;4.33;;;1.73;;
5121;SDS011;2563;52.242;7.956;2022-09-09T03:17:23;4.60;;;2.20;;
5121;SDS011;2563;52.242;7.956;2022-09-09T03:19:49;4.87;;;1.43;;
5121;SDS011;2563;52.242;7.956;2022-09-09T03:22:17;4.37;;;1.40;;
5121;SDS011;2563;52.242;7.956;2022-09-09T03:24:43;6.20;;;1.80;;
5121;SDS011;2563;52.242;7.956;2022-09-09T03:27:08;6.83;;;1.73;;
5121;SDS011;2563;52.242;7.956;2022-09-09T03:29:33;6.00;;;2.53;;
5121;SDS011;2563;52.242;7.956;2022-09-09T03:31:59;4.63;;;1.90;;
5121;SDS011;2563;52.242;7.956;2022-09-09T03:34:24;5.07;;;1.93;;
5121;SDS011;2563;52.242;7.956;2022-09-09T03:36:49;4.60;;;1.50;;
5121;SDS011;2563;52.242;7.956;2022-09-09T03:39:15;5.10;;;1.70;;
5121;SDS011;2563;52.242;7.956;2022-09-09T03:41:40;4.20;;;1.53;;
5121;SDS011;2563;52.242;7.956;2022-09-09T03:44:06;6.47;;;1.93;;
5121;SDS011;2563;52.242;7.956;2022-09-09T03:46:31;5.37;;;1.60;;
5121;SDS011;2563;52.242;7.956;2022-09-09T03:48:56;4.90;;;1.97;;
5121;SDS011;2563;52.242;7.956;2022-09-09T03:51:22;6.67;;;1.77;;
5121;SDS011;2563;52.242;7.956;2022-09-09T03:53:47;6.83;;;2.17;;
5121;SDS011;2563;52.242;7.956;2022-09-09T03:56:12;5.93;;;2.10;;
5121;SDS011;2563;52.242;7.956;2022-09-09T03:58:38;5.77;;;2.17;;
5121;SDS011;2563;52.242;7.956;2022-09-09T04:01:04;9.20;;;2.47;;
5121;SDS011;2563;52.242;7.956;2022-09-09T04:03:33;5.37;;;2.43;;
5121;SDS011;2563;52.242;7.956;2022-09-09T04:06:01;6.00;;;3.03;;
5121;SDS011;2563;52.242;7.956;2022-09-09T04:08:28;10.20;;;2.70;;
5121;SDS011;2563;52.242;7.956;2022-09-09T04:10:56;4.70;;;2.50;;
5121;SDS011;2563;52.242;7.956;2022-09-09T04:13:22;6.53;;;3.20;;
5121;SDS011;2563;52.242;7.956;2022-09-09T04:15:52;8.33;;;3.30;;
5121;SDS011;2563;52.242;7.956;2022-09-09T04:18:23;7.80;;;3.00;;
5121;SDS011;2563;52.242;7.956;2022-09-09T04:20:50;5.90;;;2.40;;
5121;SDS011;2563;52.242;7.956;2022-09-09T04:23:16;9.10;;;2.67;;
5121;SDS011;2563;52.242;7.956;2022-09-09T04:25:50;5.97;;;2.70;;
5121;SDS011;2563;52.242;7.956;2022-09-09T04:28:17;5.03;;;2.47;;
5121;SDS011;2563;52.242;7.956;2022-09-09T04:30:44;4.67;;;2.20;;
5121;SDS011;2563;52.242;7.956;2022-09-09T04:33:10;7.10;;;2.53;;
5121;SDS011;2563;52.242;7.956;2022-09-09T04:35:36;5.30;;;2.50;;
5121;SDS011;2563;52.242;7.956;2022-09-09T04:38:03;7.63;;;2.33;;
5121;SDS011;2563;52.242;7.956;2022-09-09T04:40:29;6.10;;;2.33;;
5121;SDS011;2563;52.242;7.956;2022-09-09T04:42:57;4.30;;;1.60;;
5121;SDS011;2563;52.242;7.956;2022-09-09T04:45:23;6.70;;;2.53;;
5121;SDS011;2563;52.242;7.956;2022-09-09T04:47:48;5.13;;;1.77;;
5121;SDS011;2563;52.242;7.956;2022-09-09T04:50:14;7.00;;;2.20;;
5121;SDS011;2563;52.242;7.956;2022-09-09T04:52:39;5.77;;;1.80;;
5121;SDS011;2563;52.242;7.956;2022-09-09T04:55:06;8.23;;;2.30;;
5121;SDS011;2563;52.242;7.956;2022-09-09T04:57:32;7.77;;;2.60;;
5121;SDS011;2563;52.242;7.956;2022-09-09T04:59:58;4.20;;;1.90;;
5121;SDS011;2563;52.242;7.956;2022-09-09T05:02:25;6.90;;;2.73;;
5121;SDS011;2563;52.242;7.956;2022-09-09T05:04:51;7.07;;;2.10;;
5121;SDS011;2563;52.242;7.956;2022-09-09T05:07:16;6.70;;;1.87;;
5121;SDS011;2563;52.242;7.956;2022-09-09T05:09:41;5.73;;;2.30;;
5121;SDS011;2563;52.242;7.956;2022-09-09T05:12:07;4.70;;;2.20;;
5121;SDS011;2563;52.242;7.956;2022-09-09T05:14:33;6.70;;;2.10;;
5121;SDS011;2563;52.242;7.956;2022-09-09T05:16:59;9.13;;;2.23;;
5121;SDS011;2563;52.242;7.956;2022-09-09T05:19:24;6.47;;;2.10;;
5121;SDS011;2563;52.242;7.956;2022-09-09T05:21:49;5.53;;;2.13;;
5121;SDS011;2563;52.242;7.956;2022-09-09T05:24:15;5.83;;;1.80;;
5121;SDS011;2563;52.242;7.956;2022-09-09T05:26:41;5.40;;;2.07;;
5121;SDS011;2563;52.242;7.956;2022-09-09T05:29:07;6.57;;;1.90;;
5121;SDS011;2563;52.242;7.956;2022-09-09T05:31:33;6.80;;;2.10;;
5121;SDS011;2563;52.242;7.956;2022-09-09T05:33:58;4.53;;;2.10;;
5121;SDS011;2563;52.242;7.956;2022-09-09T05:36:24;5.30;;;1.93;;
5121;SDS011;2563;52.242;7.956;2022-09-09T05:38:49;4.70;;;1.63;;
5121;SDS011;2563;52.242;7.956;2022-09-09T05:41:16;5.77;;;1.80;;
5121;SDS011;2563;52.242;7.956;2022-09-09T05:43:42;4.90;;;1.37;;
5121;SDS011;2563;52.242;7.956;2022-09-09T05:46:13;6.73;;;1.77;;
5121;SDS011;2563;52.242;7.956;2022-09-09T05:48:40;5.33;;;1.97;;
5121;SDS011;2563;52.242;7.956;2022-09-09T05:51:08;4.47;;;1.50;;
5121;SDS011;2563;52.242;7.956;2022-09-09T05:53:37;4.10;;;1.57;;
5121;SDS011;2563;52.242;7.956;2022-09-09T05:58:29;5.63;;;1.90;;
5121;SDS011;2563;52.242;7.956;2022-09-09T06:01:05;6.43;;;1.67;;
5121;SDS011;2563;52.242;7.956;2022-09-09T06:03:37;5.23;;;1.57;;
5121;SDS011;2563;52.242;7.956;2022-09-09T06:06:04;5.60;;;1.33;;
5121;SDS011;2563;52.242;7.956;2022-09-09T06:08:32;9.63;;;2.30;;
5121;SDS011;2563;52.242;7.956;2022-09-09T06:11:03;11.07;;;2.30;;
5121;SDS011;2563;52.242;7.956;2022-09-09T06:13:32;4.20;;;1.60;;
5121;SDS011;2563;52.242;7.956;2022-09-09T06:15:58;4.00;;;1.50;;
5121;SDS011;2563;52.242;7.956;2022-09-09T06:18:24;5.90;;;1.87;;
5121;SDS011;2563;52.242;7.956;2022-09-09T06:21:00;9.53;;;1.87;;
5121;SDS011;2563;52.242;7.956;2022-09-09T06:23:29;8.40;;;2.00;;
5121;SDS011;2563;52.242;7.956;2022-09-09T06:28:33;5.47;;;1.80;;
5121;SDS011;2563;52.242;7.956;2022-09-09T06:31:02;4.63;;;1.60;;
5121;SDS011;2563;52.242;7.956;2022-09-09T06:33:48;5.33;;;1.97;;
5121;SDS011;2563;52.242;7.956;2022-09-09T06:36:25;6.00;;;1.73;;
5121;SDS011;2563;52.242;7.956;2022-09-09T06:38:56;13.20;;;1.90;;
5121;SDS011;2563;52.242;7.956;2022-09-09T06:41:22;6.07;;;1.63;;
5121;SDS011;2563;52.242;7.956;2022-09-09T06:43:48;5.20;;;1.73;;
5121;SDS011;2563;52.242;7.956;2022-09-09T06:46:15;5.23;;;1.60;;
5121;SDS011;2563;52.242;7.956;2022-09-09T06:48:43;6.47;;;1.80;;
5121;SDS011;2563;52.242;7.956;2022-09-09T06:51:15;7.83;;;2.70;;
5121;SDS011;2563;52.242;7.956;2022-09-09T06:53:46;5.83;;;1.70;;
5121;SDS011;2563;52.242;7.956;2022-09-09T06:56:28;4.30;;;1.50;;
5121;SDS011;2563;52.242;7.956;2022-09-09T06:58:56;5.97;;;1.90;;
5121;SDS011;2563;52.242;7.956;2022-09-09T07:01:30;9.00;;;1.70;;
5121;SDS011;2563;52.242;7.956;2022-09-09T07:04:00;8.23;;;2.20;;
5121;SDS011;2563;52.242;7.956;2022-09-09T07:06:31;5.63;;;1.87;;
5121;SDS011;2563;52.242;7.956;2022-09-09T07:09:03;5.60;;;2.60;;
5121;SDS011;2563;52.242;7.956;2022-09-09T07:11:37;5.00;;;1.67;;
5121;SDS011;2563;52.242;7.956;2022-09-09T07:14:04;7.13;;;1.97;;
5121;SDS011;2563;52.242;7.956;2022-09-09T07:16:30;5.30;;;1.73;;
5121;SDS011;2563;52.242;7.956;2022-09-09T07:18:58;8.90;;;1.90;;
5121;SDS011;2563;52.242;7.956;2022-09-09T07:21:24;8.40;;;2.57;;
5121;SDS011;2563;52.242;7.956;2022-09-09T07:23:51;12.70;;;2.70;;
5121;SDS011;2563;52.242;7.956;2022-09-09T07:26:18;7.90;;;2.00;;
5121;SDS011;2563;52.242;7.956;2022-09-09T07:28:45;7.03;;;1.80;;
5121;SDS011;2563;52.242;7.956;2022-09-09T07:31:15;7.03;;;2.07;;
5121;SDS011;2563;52.242;7.956;2022-09-09T07:33:42;5.80;;;2.07;;
5121;SDS011;2563;52.242;7.956;2022-09-09T07:36:10;9.23;;;2.30;;
5121;SDS011;2563;52.242;7.956;2022-09-09T07:38:44;7.43;;;1.73;;
5121;SDS011;2563;52.242;7.956;2022-09-09T07:41:12;6.27;;;2.33;;
5121;SDS011;2563;52.242;7.956;2022-09-09T07:43:41;7.83;;;2.70;;
5121;SDS011;2563;52.242;7.956;2022-09-09T07:46:07;9.03;;;2.03;;
5121;SDS011;2563;52.242;7.956;2022-09-09T07:48:34;8.83;;;2.43;;
5121;SDS011;2563;52.242;7.956;2022-09-09T07:51:10;8.80;;;2.10;;
5121;SDS011;2563;52.242;7.956;2022-09-09T07:53:41;4.00;;;1.70;;
5121;SDS011;2563;52.242;7.956;2022-09-09T07:56:07;13.20;;;1.80;;
5121;SDS011;2563;52.242;7.956;2022-09-09T07:58:36;7.77;;;1.73;;
5121;SDS011;2563;52.242;7.956;2022-09-09T08:01:09;10.40;;;2.60;;
5121;SDS011;2563;52.242;7.956;2022-09-09T08:03:36;10.00;;;2.13;;
5121;SDS011;2563;52.242;7.956;2022-09-09T08:06:03;10.90;;;1.80;;
5121;SDS011;2563;52.242;7.956;2022-09-09T08:08:31;9.97;;;1.83;;
5121;SDS011;2563;52.242;7.956;2022-09-09T08:11:16;10.50;;;1.70;;
5121;SDS011;2563;52.242;7.956;2022-09-09T08:13:42;7.33;;;2.00;;
5121;SDS011;2563;52.242;7.956;2022-09-09T08:16:12;5.27;;;1.50;;
5121;SDS011;2563;52.242;7.956;2022-09-09T08:18:42;5.30;;;1.70;;
5121;SDS011;2563;52.242;7.956;2022-09-09T08:21:12;10.60;;;1.60;;
5121;SDS011;2563;52.242;7.956;2022-09-09T08:23:40;5.73;;;1.70;;
5121;SDS011;2563;52.242;7.956;2022-09-09T08:28:46;6.37;;;1.67;;
5121;SDS011;2563;52.242;7.956;2022-09-09T08:31:16;6.83;;;1.80;;
5121;SDS011;2563;52.242;7.956;2022-09-09T08:33:43;6.90;;;2.07;;
5121;SDS011;2563;52.242;7.956;2022-09-09T08:36:12;9.47;;;2.00;;
5121;SDS011;2563;52.242;7.956;2022-09-09T08:38:40;7.83;;;2.00;;
5121;SDS011;2563;52.242;7.956;2022-09-09T08:41:15;16.97;;;2.47;;
5121;SDS011;2563;52.242;7.956;2022-09-09T08:52:26;10.77;;;2.03;;
5121;SDS011;2563;52.242;7.956;2022-09-09T08:54:55;8.30;;;1.70;;
5121;SDS011;2563;52.242;7.956;2022-09-09T08:57:28;7.00;;;2.40;;
5121;SDS011;2563;52.242;7.956;2022-09-09T08:59:56;4.87;;;1.90;;
5121;SDS011;2563;52.242;7.956;2022-09-09T09:03:06;5.00;;;1.70;;
5121;SDS011;2563;52.242;7.956;2022-09-09T09:10:22;7.13;;;1.70;;
5121;SDS011;2563;52.242;7.956;2022-09-09T09:12:57;19.53;;;3.00;;
5121;SDS011;2563;52.242;7.956;2022-09-09T09:15:24;7.53;;;2.67;;
5121;SDS011;2563;52.242;7.956;2022-09-09T09:17:52;8.70;;;2.30;;
5121;SDS011;2563;52.242;7.956;2022-09-09T09:20:18;8.77;;;2.27;;
5121;SDS011;2563;52.242;7.956;2022-09-09T09:22:51;9.63;;;2.30;;
5121;SDS011;2563;52.242;7.956;2022-09-09T09:25:21;7.63;;;2.23;;
5121;SDS011;2563;52.242;7.956;2022-09-09T09:35:57;4.60;;;2.53;;
5121;SDS011;2563;52.242;7.956;2022-09-09T09:38:25;11.77;;;3.17;;
5121;SDS011;2563;52.242;7.956;2022-09-09T09:40:56;10.63;;;2.57;;
5121;SDS011;2563;52.242;7.956;2022-09-09T09:43:27;8.60;;;3.47;;
5121;SDS011;2563;52.242;7.956;2022-09-09T09:45:54;7.67;;;2.53;;
5121;SDS011;2563;52.242;7.956;2022-09-09T09:48:22;6.87;;;2.80;;
5121;SDS011;2563;52.242;7.956;2022-09-09T09:50:49;5.53;;;2.47;;
5121;SDS011;2563;52.242;7.956;2022-09-09T09:53:20;6.67;;;2.90;;
5121;SDS011;2563;52.242;7.956;2022-09-09T09:55:59;8.50;;;2.77;;
5121;SDS011;2563;52.242;7.956;2022-09-09T09:58:49;5.80;;;2.60;;
5121;SDS011;2563;52.242;7.956;2022-09-09T10:01:20;7.30;;;3.07;;
5121;SDS011;2563;52.242;7.956;2022-09-09T10:03:50;9.80;;;3.40;;
5121;SDS011;2563;52.242;7.956;2022-09-09T10:06:17;5.40;;;2.60;;
5121;SDS011;2563;52.242;7.956;2022-09-09T10:08:45;5.63;;;2.90;;
5121;SDS011;2563;52.242;7.956;2022-09-09T10:11:21;7.00;;;2.67;;
5121;SDS011;2563;52.242;7.956;2022-09-09T10:19:42;4.87;;;3.07;;
5121;SDS011;2563;52.242;7.956;2022-09-09T10:22:27;4.63;;;2.70;;
5121;SDS011;2563;52.242;7.956;2022-09-09T10:25:43;9.40;;;3.67;;
5121;SDS011;2563;52.242;7.956;2022-09-09T10:28:05;5.20;;;3.27;;
5121;SDS011;2563;52.242;7.956;2022-09-09T10:30:47;7.00;;;3.17;;
5121;SDS011;2563;52.242;7.956;2022-09-09T10:33:33;7.67;;;3.20;;
5121;SDS011;2563;52.242;7.956;2022-09-09T10:36:13;6.63;;;2.87;;
5121;SDS011;2563;52.242;7.956;2022-09-09T10:38:47;5.40;;;2.60;;
5121;SDS011;2563;52.242;7.956;2022-09-09T10:43:55;7.37;;;2.70;;
5121;SDS011;2563;52.242;7.956;2022-09-09T10:47:01;6.70;;;2.17;;
5121;SDS011;2563;52.242;7.956;2022-09-09T10:49:57;6.23;;;2.33;;
5121;SDS011;2563;52.242;7.956;2022-09-09T10:54:53;5.30;;;1.87;;
5121;SDS011;2563;52.242;7.956;2022-09-09T11:00:01;6.63;;;2.20;;
5121;SDS011;2563;52.242;7.956;2022-09-09T11:02:31;5.13;;;2.40;;
5121;SDS011;2563;52.242;7.956;2022-09-09T11:05:10;9.50;;;2.33;;
5121;SDS011;2563;52.242;7.956;2022-09-09T11:07:54;8.73;;;3.00;;
5121;SDS011;2563;52.242;7.956;2022-09-09T11:21:59;4.07;;;2.37;;
5121;SDS011;2563;52.242;7.956;2022-09-09T11:40:23;4.63;;;2.20;;
5121;SDS011;2563;52.242;7.956;2022-09-09T11:43:03;4.10;;;2.10;;
5121;SDS011;2563;52.242;7.956;2022-09-09T11:45:34;3.17;;;1.97;;
5121;SDS011;2563;52.242;7.956;2022-09-09T11:48:01;4.60;;;2.23;;
5121;SDS011;2563;52.242;7.956;2022-09-09T11:50:29;6.90;;;2.70;;
5121;SDS011;2563;52.242;7.956;2022-09-09T11:53:04;8.43;;;2.40;;
5121;SDS011;2563;52.242;7.956;2022-09-09T11:55:41;6.43;;;2.60;;
5121;SDS011;2563;52.242;7.956;2022-09-09T12:00:37;6.43;;;2.17;;
5121;SDS011;2563;52.242;7.956;2022-09-09T12:03:05;3.30;;;1.57;;
5121;SDS011;2563;52.242;7.956;2022-09-09T12:05:40;2.23;;;1.30;;
5121;SDS011;2563;52.242;7.956;2022-09-09T12:08:09;4.20;;;1.00;;
5121;SDS011;2563;52.242;7.956;2022-09-09T12:10:52;2.10;;;1.20;;
5121;SDS011;2563;52.242;7.956;2022-09-09T12:13:21;6.47;;;1.30;;
5121;SDS011;2563;52.242;7.956;2022-09-09T12:15:55;3.67;;;1.27;;
5121;SDS011;2563;52.242;7.956;2022-09-09T12:18:23;1.90;;;1.23;;
5121;SDS011;2563;52.242;7.956;2022-09-09T12:23:43;2.57;;;1.60;;
5121;SDS011;2563;52.242;7.956;2022-09-09T12:34:40;4.13;;;1.90;;
5121;SDS011;2563;52.242;7.956;2022-09-09T12:42:44;3.67;;;1.70;;
5121;SDS011;2563;52.242;7.956;2022-09-09T12:45:20;3.20;;;1.60;;
5121;SDS011;2563;52.242;7.956;2022-09-09T12:50:22;6.67;;;2.40;;
5121;SDS011;2563;52.242;7.956;2022-09-09T12:52:56;6.00;;;2.70;;
5121;SDS011;2563;52.242;7.956;2022-09-09T12:55:27;8.00;;;2.80;;
5121;SDS011;2563;52.242;7.956;2022-09-09T12:57:55;4.83;;;2.20;;
5121;SDS011;2563;52.242;7.956;2022-09-09T13:00:21;5.60;;;2.17;;
5121;SDS011;2563;52.242;7.956;2022-09-09T13:02:55;3.73;;;2.20;;
5121;SDS011;2563;52.242;7.956;2022-09-09T13:05:27;7.50;;;2.33;;
5121;SDS011;2563;52.242;7.956;2022-09-09T13:08:03;5.53;;;2.20;;
5121;SDS011;2563;52.242;7.956;2022-09-09T13:10:31;4.43;;;2.17;;
5121;SDS011;2563;52.242;7.956;2022-09-09T13:13:03;3.83;;;2.07;;
5121;SDS011;2563;52.242;7.956;2022-09-09T13:15:30;5.00;;;2.00;;
5121;SDS011;2563;52.242;7.956;2022-09-09T13:17:57;5.80;;;2.07;;
5121;SDS011;2563;52.242;7.956;2022-09-09T13:20:25;4.27;;;2.20;;
5121;SDS011;2563;52.242;7.956;2022-09-09T13:22:52;4.30;;;1.93;;
5121;SDS011;2563;52.242;7.956;2022-09-09T13:25:23;6.43;;;2.20;;
5121;SDS011;2563;52.242;7.956;2022-09-09T13:35:45;3.20;;;1.77;;
5121;SDS011;2563;52.242;7.956;2022-09-09T13:38:16;6.27;;;1.30;;
5121;SDS011;2563;52.242;7.956;2022-09-09T13:40:57;1.93;;;1.00;;
5121;SDS011;2563;52.242;7.956;2022-09-09T13:43:28;3.73;;;1.30;;
5121;SDS011;2563;52.242;7.956;2022-09-09T13:45:57;1.70;;;1.00;;
5121;SDS011;2563;52.242;7.956;2022-09-09T13:48:24;2.10;;;1.20;;
5121;SDS011;2563;52.242;7.956;2022-09-09T13:50:57;4.03;;;1.17;;
5121;SDS011;2563;52.242;7.956;2022-09-09T13:53:24;2.20;;;1.20;;
5121;SDS011;2563;52.242;7.956;2022-09-09T13:55:50;3.00;;;1.13;;
5121;SDS011;2563;52.242;7.956;2022-09-09T13:58:16;5.07;;;1.33;;
5121;SDS011;2563;52.242;7.956;2022-09-09T14:00:46;4.83;;;1.80;;
5121;SDS011;2563;52.242;7.956;2022-09-09T14:03:12;2.50;;;1.20;;
5121;SDS011;2563;52.242;7.956;2022-09-09T14:05:38;3.33;;;1.63;;
5121;SDS011;2563;52.242;7.956;2022-09-09T14:08:04;4.00;;;2.20;;
5121;SDS011;2563;52.242;7.956;2022-09-09T14:10:31;3.27;;;1.33;;
5121;SDS011;2563;52.242;7.956;2022-09-09T14:12:57;11.00;;;1.40;;
5121;SDS011;2563;52.242;7.956;2022-09-09T14:15:23;3.40;;;1.70;;
5121;SDS011;2563;52.242;7.956;2022-09-09T14:17:48;3.10;;;2.00;;
5121;SDS011;2563;52.242;7.956;2022-09-09T14:20:14;4.23;;;2.20;;
5121;SDS011;2563;52.242;7.956;2022-09-09T14:22:40;4.93;;;1.70;;
5121;SDS011;2563;52.242;7.956;2022-09-09T14:25:06;5.07;;;1.90;;
5121;SDS011;2563;52.242;7.956;2022-09-09T14:27:32;5.10;;;1.40;;
5121;SDS011;2563;52.242;7.956;2022-09-09T14:29:58;5.73;;;1.93;;
5121;SDS011;2563;52.242;7.956;2022-09-09T14:32:24;5.30;;;1.77;;
5121;SDS011;2563;52.242;7.956;2022-09-09T14:34:50;3.70;;;1.83;;
5121;SDS011;2563;52.242;7.956;2022-09-09T14:37:16;4.23;;;2.10;;
5121;SDS011;2563;52.242;7.956;2022-09-09T14:39:42;6.10;;;1.90;;
5121;SDS011;2563;52.242;7.956;2022-09-09T14:42:09;4.30;;;2.30;;
5121;SDS011;2563;52.242;7.956;2022-09-09T14:44:36;3.77;;;1.83;;
5121;SDS011;2563;52.242;7.956;2022-09-09T14:47:03;11.43;;;2.20;;
5121;SDS011;2563;52.242;7.956;2022-09-09T14:49:29;3.37;;;1.90;;
5121;SDS011;2563;52.242;7.956;2022-09-09T14:51:54;3.40;;;1.80;;
5121;SDS011;2563;52.242;7.956;2022-09-09T14:54:20;3.27;;;1.80;;
5121;SDS011;2563;52.242;7.956;2022-09-09T14:56:47;4.03;;;2.10;;
5121;SDS011;2563;52.242;7.956;2022-09-09T14:59:14;5.70;;;2.10;;
5121;SDS011;2563;52.242;7.956;2022-09-09T15:01:39;4.97;;;2.73;;
5121;SDS011;2563;52.242;7.956;2022-09-09T15:04:05;4.70;;;1.90;;
5121;SDS011;2563;52.242;7.956;2022-09-09T15:06:32;3.27;;;1.80;;
5121;SDS011;2563;52.242;7.956;2022-09-09T15:08:59;5.37;;;2.10;;
5121;SDS011;2563;52.242;7.956;2022-09-09T15:11:29;2.97;;;2.17;;
5121;SDS011;2563;52.242;7.956;2022-09-09T15:13:59;6.83;;;2.30;;
5121;SDS011;2563;52.242;7.956;2022-09-09T15:16:26;4.10;;;1.70;;
5121;SDS011;2563;52.242;7.956;2022-09-09T15:18:54;6.47;;;2.23;;
5121;SDS011;2563;52.242;7.956;2022-09-09T15:21:22;3.40;;;2.20;;
5121;SDS011;2563;52.242;7.956;2022-09-09T15:23:49;8.23;;;1.93;;
5121;SDS011;2563;52.242;7.956;2022-09-09T15:26:15;6.83;;;1.77;;
5121;SDS011;2563;52.242;7.956;2022-09-09T15:28:42;3.40;;;1.30;;
5121;SDS011;2563;52.242;7.956;2022-09-09T15:31:22;9.10;;;1.53;;
5121;SDS011;2563;52.242;7.956;2022-09-09T15:33:49;6.30;;;1.90;;
5121;SDS011;2563;52.242;7.956;2022-09-09T15:36:25;5.83;;;2.00;;
5121;SDS011;2563;52.242;7.956;2022-09-09T15:38:52;5.43;;;2.00;;
5121;SDS011;2563;52.242;7.956;2022-09-09T15:41:18;2.63;;;1.40;;
5121;SDS011;2563;52.242;7.956;2022-09-09T15:43:45;3.83;;;1.50;;
5121;SDS011;2563;52.242;7.956;2022-09-09T15:46:25;7.60;;;1.30;;
5121;SDS011;2563;52.242;7.956;2022-09-09T15:49:20;2.80;;;1.43;;
5121;SDS011;2563;52.242;7.956;2022-09-09T15:51:53;6.93;;;1.57;;
5121;SDS011;2563;52.242;7.956;2022-09-09T15:54:22;2.37;;;1.40;;
5121;SDS011;2563;52.242;7.956;2022-09-09T15:56:53;5.07;;;1.50;;
5121;SDS011;2563;52.242;7.956;2022-09-09T15:59:23;3.50;;;1.40;;
5121;SDS011;2563;52.242;7.956;2022-09-09T16:01:49;2.60;;;1.17;;
5121;SDS011;2563;52.242;7.956;2022-09-09T16:04:17;4.80;;;1.20;;
5121;SDS011;2563;52.242;7.956;2022-09-09T16:06:51;5.53;;;1.30;;
5121;SDS011;2563;52.242;7.956;2022-09-09T16:09:19;3.10;;;1.10;;
5121;SDS011;2563;52.242;7.956;2022-09-09T16:11:45;2.10;;;1.03;;
5121;SDS011;2563;52.242;7.956;2022-09-09T16:14:12;2.43;;;1.27;;
5121;SDS011;2563;52.242;7.956;2022-09-09T16:16:38;3.70;;;1.50;;
5121;SDS011;2563;52.242;7.956;2022-09-09T16:19:04;1.87;;;1.00;;
5121;SDS011;2563;52.242;7.956;2022-09-09T16:21:36;2.60;;;1.10;;
5121;SDS011;2563;52.242;7.956;2022-09-09T16:24:07;4.97;;;1.97;;
5121;SDS011;2563;52.242;7.956;2022-09-09T16:26:34;2.63;;;1.20;;
5121;SDS011;2563;52.242;7.956;2022-09-09T16:29:01;3.20;;;1.10;;
5121;SDS011;2563;52.242;7.956;2022-09-09T16:31:28;2.33;;;1.20;;
5121;SDS011;2563;52.242;7.956;2022-09-09T16:33:54;2.20;;;1.10;;
5121;SDS011;2563;52.242;7.956;2022-09-09T16:36:21;5.10;;;1.10;;
5121;SDS011;2563;52.242;7.956;2022-09-09T16:38:51;5.47;;;1.57;;
5121;SDS011;2563;52.242;7.956;2022-09-09T16:41:18;4.43;;;1.13;;
5121;SDS011;2563;52.242;7.956;2022-09-09T16:43:44;4.27;;;1.10;;
5121;SDS011;2563;52.242;7.956;2022-09-09T16:46:14;2.40;;;1.03;;
5121;SDS011;2563;52.242;7.956;2022-09-09T16:48:41;5.07;;;1.40;;
5121;SDS011;2563;52.242;7.956;2022-09-09T16:51:09;2.27;;;1.23;;
5121;SDS011;2563;52.242;7.956;2022-09-09T16:53:40;6.20;;;1.37;;
5121;SDS011;2563;52.242;7.956;2022-09-09T16:56:08;2.60;;;1.30;;
5121;SDS011;2563;52.242;7.956;2022-09-09T16:58:35;3.60;;;1.83;;
5121;SDS011;2563;52.242;7.956;2022-09-09T17:01:01;5.17;;;1.23;;
5121;SDS011;2563;52.242;7.956;2022-09-09T17:03:28;4.97;;;1.13;;
5121;SDS011;2563;52.242;7.956;2022-09-09T17:05:54;2.70;;;1.00;;
5121;SDS011;2563;52.242;7.956;2022-09-09T17:08:20;2.67;;;1.50;;
5121;SDS011;2563;52.242;7.956;2022-09-09T17:10:45;6.00;;;1.57;;
5121;SDS011;2563;52.242;7.956;2022-09-09T17:13:12;7.33;;;1.20;;
5121;SDS011;2563;52.242;7.956;2022-09-09T17:15:41;3.63;;;1.17;;
5121;SDS011;2563;52.242;7.956;2022-09-09T17:18:08;3.17;;;1.17;;
5121;SDS011;2563;52.242;7.956;2022-09-09T17:20:37;3.57;;;1.50;;
5121;SDS011;2563;52.242;7.956;2022-09-09T17:23:05;5.43;;;1.80;;
5121;SDS011;2563;52.242;7.956;2022-09-09T17:25:31;4.83;;;1.07;;
5121;SDS011;2563;52.242;7.956;2022-09-09T17:27:56;2.77;;;1.30;;
5121;SDS011;2563;52.242;7.956;2022-09-09T17:30:22;5.97;;;2.23;;
5121;SDS011;2563;52.242;7.956;2022-09-09T17:32:47;7.30;;;1.63;;
5121;SDS011;2563;52.242;7.956;2022-09-09T17:35:13;3.53;;;1.50;;
5121;SDS011;2563;52.242;7.956;2022-09-09T17:37:38;5.70;;;2.10;;
5121;SDS011;2563;52.242;7.956;2022-09-09T17:40:03;4.87;;;2.00;;
5121;SDS011;2563;52.242;7.956;2022-09-09T17:42:29;3.50;;;1.80;;
5121;SDS011;2563;52.242;7.956;2022-09-09T17:44:55;6.93;;;2.20;;
5121;SDS011;2563;52.242;7.956;2022-09-09T17:47:20;6.57;;;2.00;;
5121;SDS011;2563;52.242;7.956;2022-09-09T17:49:45;5.80;;;2.07;;
5121;SDS011;2563;52.242;7.956;2022-09-09T17:52:11;6.27;;;2.40;;